createdAt,value
2023-04-06T00:00:27.895Z,3.63
2023-04-06T00:03:31.930Z,2.40
2023-04-06T00:06:35.827Z,2.22
2023-04-06T00:09:39.203Z,3.57
2023-04-06T00:12:42.923Z,2.83
2023-04-06T00:15:46.382Z,2.95
2023-04-06T00:18:49.863Z,3.85
2023-04-06T00:21:53.575Z,3.75
2023-04-06T00:24:57.023Z,2.72
2023-04-06T00:28:00.504Z,3.17
2023-04-06T00:31:04.030Z,3.03
2023-04-06T00:34:07.852Z,3.58
2023-04-06T00:37:12.497Z,3.42
2023-04-06T00:40:16.513Z,3.80
2023-04-06T00:43:20.024Z,3.60
2023-04-06T00:46:24.057Z,3.50
2023-04-06T00:49:28.215Z,3.40
2023-04-06T00:52:31.850Z,3.10
2023-04-06T00:55:37.039Z,3.42
2023-04-06T00:58:41.749Z,3.63
2023-04-06T01:01:46.488Z,3.40
2023-04-06T01:05:05.903Z,2.70
2023-04-06T01:08:21.310Z,4.55
2023-04-06T01:11:27.353Z,2.78
2023-04-06T01:14:31.301Z,4.00
2023-04-06T01:17:37.148Z,3.17
2023-04-06T01:20:47.382Z,4.00
2023-04-06T01:23:53.016Z,4.38
2023-04-06T01:27:03.991Z,3.95
2023-04-06T01:30:20.796Z,4.68
2023-04-06T01:33:37.629Z,3.58
2023-04-06T01:36:44.526Z,3.43
2023-04-06T01:40:00.535Z,3.40
2023-04-06T01:43:16.978Z,4.20
2023-04-06T01:46:38.908Z,3.30
2023-04-06T01:49:44.225Z,2.80
2023-04-06T01:52:47.780Z,2.92
2023-04-06T01:55:51.958Z,2.47
2023-04-06T01:59:03.298Z,3.27
2023-04-06T02:02:14.182Z,3.17
2023-04-06T02:05:23.138Z,3.47
2023-04-06T02:08:28.934Z,3.50
2023-04-06T02:11:32.538Z,2.53
2023-04-06T02:14:36.004Z,3.80
2023-04-06T02:17:39.514Z,3.33
2023-04-06T02:20:43.360Z,3.50
2023-04-06T02:23:48.260Z,3.27
2023-04-06T02:26:51.859Z,3.25
2023-04-06T02:29:55.348Z,3.60
2023-04-06T02:32:58.854Z,3.00
2023-04-06T02:36:02.462Z,3.23
2023-04-06T02:39:06.761Z,3.40
2023-04-06T02:42:11.320Z,3.05
2023-04-06T02:45:15.096Z,2.72
2023-04-06T02:48:21.809Z,3.00
2023-04-06T02:51:25.199Z,2.83
2023-04-06T02:54:32.225Z,2.92
2023-04-06T02:57:36.878Z,3.15
2023-04-06T03:00:40.669Z,4.10
2023-04-06T03:03:44.459Z,3.38
2023-04-06T03:06:56.891Z,3.90
2023-04-06T03:10:11.851Z,3.60
2023-04-06T03:13:15.482Z,4.35
2023-04-06T03:16:30.779Z,4.75
2023-04-06T03:19:35.391Z,3.40
2023-04-06T03:22:39.690Z,3.77
2023-04-06T03:25:45.537Z,3.50
2023-04-06T03:28:53.144Z,4.22
2023-04-06T03:32:00.884Z,4.03
2023-04-06T03:35:14.672Z,3.30
2023-04-06T03:38:18.152Z,3.95
2023-04-06T03:41:22.048Z,4.70
2023-04-06T03:44:33.478Z,4.43
2023-04-06T03:47:36.938Z,4.75
2023-04-06T03:50:43.060Z,4.13
2023-04-06T03:53:46.791Z,4.60
2023-04-06T03:56:50.453Z,4.37
2023-04-06T03:59:53.921Z,4.88
2023-04-06T04:02:57.503Z,4.10
2023-04-06T04:06:01.106Z,4.30
2023-04-06T04:09:04.817Z,4.32
2023-04-06T04:12:08.489Z,4.63
2023-04-06T04:15:12.212Z,4.15
2023-04-06T04:18:15.978Z,3.95
2023-04-06T04:21:19.413Z,4.72
2023-04-06T04:24:23.109Z,3.55
2023-04-06T04:27:27.360Z,4.20
2023-04-06T04:30:30.917Z,4.43
2023-04-06T04:33:34.494Z,4.28
2023-04-06T04:36:43.044Z,4.47
2023-04-06T04:39:51.250Z,4.22
2023-04-06T04:42:54.824Z,4.32
2023-04-06T04:46:08.066Z,4.45
2023-04-06T04:49:17.686Z,3.87
2023-04-06T04:52:21.525Z,4.47
2023-04-06T04:55:45.223Z,4.40
2023-04-06T04:58:50.619Z,5.13
2023-04-06T05:01:55.560Z,4.07
2023-04-06T05:05:06.301Z,6.30
2023-04-06T05:08:10.069Z,5.22
2023-04-06T05:11:22.886Z,5.50
2023-04-06T05:14:33.093Z,5.90
2023-04-06T05:17:39.796Z,6.05
2023-04-06T05:20:44.861Z,5.83
2023-04-06T05:23:48.834Z,5.60
2023-04-06T05:26:52.844Z,5.00
2023-04-06T05:30:00.178Z,5.93
2023-04-06T05:33:06.364Z,6.07
2023-04-06T05:36:23.250Z,6.00
2023-04-06T05:39:27.378Z,6.55
2023-04-06T05:42:42.247Z,6.10
2023-04-06T05:45:46.817Z,5.25
2023-04-06T05:48:50.452Z,6.80
2023-04-06T05:51:56.865Z,6.10
2023-04-06T05:55:00.997Z,6.43
2023-04-06T05:58:04.677Z,7.25
2023-04-06T06:01:08.105Z,6.20
2023-04-06T06:04:16.596Z,5.75
2023-04-06T06:07:21.422Z,4.93
2023-04-06T06:10:34.648Z,5.80
2023-04-06T06:13:38.148Z,5.30
2023-04-06T06:16:42.497Z,3.45
2023-04-06T06:19:49.381Z,5.93
2023-04-06T06:22:53.805Z,4.37
2023-04-06T06:25:59.520Z,5.22
2023-04-06T06:29:06.540Z,3.55
2023-04-06T06:32:12.652Z,5.83
2023-04-06T06:35:17.648Z,5.57
2023-04-06T06:38:23.509Z,6.10
2023-04-06T06:41:28.068Z,5.43
2023-04-06T06:44:31.976Z,5.20
2023-04-06T06:47:35.466Z,4.75
2023-04-06T06:50:38.969Z,5.90
2023-04-06T06:53:42.800Z,5.50
2023-04-06T06:56:47.012Z,5.75
2023-04-06T06:59:50.665Z,5.63
2023-04-06T07:02:56.026Z,4.82
2023-04-06T07:06:00.759Z,6.30
2023-04-06T07:09:04.551Z,5.68
2023-04-06T07:12:08.135Z,6.68
2023-04-06T07:15:12.118Z,4.87
2023-04-06T07:18:15.603Z,7.18
2023-04-06T07:21:19.176Z,5.93
2023-04-06T07:24:22.722Z,4.87
2023-04-06T07:27:26.245Z,4.55
2023-04-06T07:30:31.674Z,6.68
2023-04-06T07:33:36.736Z,5.93
2023-04-06T07:36:40.341Z,6.63
2023-04-06T07:39:44.348Z,6.32
2023-04-06T07:42:48.448Z,7.68
2023-04-06T07:45:52.208Z,6.97
2023-04-06T07:48:58.900Z,5.75
2023-04-06T07:52:04.005Z,5.65
2023-04-06T07:55:08.328Z,5.32
2023-04-06T07:58:11.931Z,5.53
2023-04-06T08:01:15.661Z,5.13
2023-04-06T08:04:19.145Z,6.43
2023-04-06T08:07:23.025Z,6.90
2023-04-06T08:10:26.525Z,6.18
2023-04-06T08:13:30.314Z,5.70
2023-04-06T08:16:33.756Z,4.88
2023-04-06T08:19:38.489Z,6.67
2023-04-06T08:22:42.038Z,6.65
2023-04-06T08:25:45.999Z,5.40
2023-04-06T08:28:49.569Z,5.60
2023-04-06T08:31:53.080Z,6.15
2023-04-06T08:34:56.734Z,5.78
2023-04-06T08:38:00.277Z,6.07
2023-04-06T08:41:12.559Z,7.37
2023-04-06T08:44:16.101Z,5.50
2023-04-06T08:47:22.377Z,6.28
2023-04-06T08:50:29.234Z,5.38
2023-04-06T08:53:32.977Z,5.35
2023-04-06T08:56:39.768Z,6.88
2023-04-06T08:59:44.067Z,4.65
2023-04-06T09:02:50.360Z,5.83
2023-04-06T09:05:54.496Z,5.78
2023-04-06T09:08:59.151Z,5.18
2023-04-06T09:12:06.942Z,7.78
2023-04-06T09:15:22.924Z,7.03
2023-04-06T09:18:32.399Z,5.30
2023-04-06T09:21:37.059Z,5.70
2023-04-06T09:24:48.722Z,5.63
2023-04-06T09:28:04.773Z,7.38
2023-04-06T09:31:08.421Z,7.15
2023-04-06T09:34:23.990Z,5.43
2023-04-06T09:37:29.900Z,6.18
2023-04-06T09:40:33.456Z,5.55
2023-04-06T09:43:36.983Z,6.20
2023-04-06T09:46:57.948Z,5.87
2023-04-06T09:50:04.400Z,6.35
2023-04-06T09:53:09.065Z,7.25
2023-04-06T09:56:18.073Z,6.60
2023-04-06T09:59:30.790Z,4.73
2023-04-06T10:02:42.465Z,7.07
2023-04-06T10:06:02.281Z,6.00
2023-04-06T10:09:09.328Z,6.63
2023-04-06T10:12:13.886Z,6.27
2023-04-06T10:15:20.322Z,6.25
2023-04-06T10:18:26.224Z,5.60
2023-04-06T10:21:32.220Z,7.20
2023-04-06T10:24:36.908Z,6.33
2023-04-06T10:27:40.613Z,7.43
2023-04-06T10:30:44.951Z,6.57
2023-04-06T10:34:02.808Z,6.65
2023-04-06T10:37:20.154Z,5.80
2023-04-06T10:40:28.269Z,5.88
2023-04-06T10:43:38.652Z,7.10
2023-04-06T10:46:53.108Z,5.97
2023-04-06T10:49:56.690Z,6.67
2023-04-06T10:53:02.375Z,6.70
2023-04-06T10:56:10.312Z,6.40
2023-04-06T10:59:14.240Z,5.90
2023-04-06T11:02:23.971Z,7.35
2023-04-06T11:05:27.542Z,7.50
2023-04-06T11:08:33.508Z,6.70
2023-04-06T11:11:41.199Z,6.90
2023-04-06T11:15:05.525Z,6.27
2023-04-06T11:18:09.125Z,6.88
2023-04-06T11:21:16.087Z,5.25
2023-04-06T11:24:21.337Z,6.03
2023-04-06T11:27:26.615Z,6.95
2023-04-06T11:30:30.136Z,6.90
2023-04-06T11:33:40.986Z,5.82
2023-04-06T11:36:45.878Z,8.40
2023-04-06T11:39:51.934Z,6.80
2023-04-06T11:42:58.983Z,6.77
2023-04-06T11:46:04.536Z,5.05
2023-04-06T11:49:08.057Z,6.10
2023-04-06T11:52:19.688Z,6.47
2023-04-06T11:55:23.145Z,7.72
2023-04-06T11:58:27.786Z,6.03
2023-04-06T12:01:34.196Z,6.07
2023-04-06T12:04:40.750Z,5.35
2023-04-06T12:07:44.446Z,5.05
2023-04-06T12:10:47.905Z,6.38
2023-04-06T12:13:51.607Z,8.18
2023-04-06T12:16:54.977Z,6.03
2023-04-06T12:20:05.244Z,5.75
2023-04-06T12:23:09.375Z,5.45
2023-04-06T12:26:13.039Z,6.03
2023-04-06T12:29:16.993Z,5.32
2023-04-06T12:32:20.752Z,5.45
2023-04-06T12:35:24.161Z,5.10
2023-04-06T12:38:28.200Z,5.70
2023-04-06T12:41:31.921Z,5.15
2023-04-06T12:44:35.632Z,5.45
2023-04-06T12:47:39.564Z,5.95
2023-04-06T12:50:43.033Z,5.63
2023-04-06T12:53:46.542Z,6.23
2023-04-06T12:56:49.937Z,5.45
2023-04-06T12:59:54.021Z,6.70
2023-04-06T13:02:57.743Z,4.90
2023-04-06T13:06:02.549Z,5.85
2023-04-06T13:09:06.699Z,6.47
2023-04-06T13:12:10.137Z,5.13
2023-04-06T13:15:13.717Z,5.88
2023-04-06T13:18:17.240Z,4.47
2023-04-06T13:21:21.963Z,4.97
2023-04-06T13:24:25.953Z,6.37
2023-04-06T13:27:29.467Z,5.65
2023-04-06T13:30:32.973Z,5.20
2023-04-06T13:33:36.696Z,4.50
2023-04-06T13:36:42.463Z,3.78
2023-04-06T13:39:46.122Z,4.00
2023-04-06T13:42:49.979Z,5.65
2023-04-06T13:45:59.211Z,4.10
2023-04-06T13:49:02.816Z,5.57
2023-04-06T13:52:06.468Z,5.35
2023-04-06T13:55:10.456Z,3.73
2023-04-06T13:58:13.944Z,5.53
2023-04-06T14:01:17.409Z,5.40
2023-04-06T14:04:20.904Z,6.00
2023-04-06T14:07:24.760Z,5.45
2023-04-06T14:10:29.183Z,5.23
2023-04-06T14:13:32.840Z,5.28
2023-04-06T14:16:36.507Z,5.70
2023-04-06T14:19:39.996Z,5.43
2023-04-06T14:22:44.198Z,6.03
2023-04-06T14:25:47.928Z,6.17
2023-04-06T14:28:51.652Z,6.20
2023-04-06T14:32:00.784Z,4.10
2023-04-06T14:35:05.851Z,4.63
2023-04-06T14:38:10.772Z,5.95
2023-04-06T14:41:21.363Z,4.60
2023-04-06T14:44:24.758Z,6.50
2023-04-06T14:47:28.271Z,5.88
2023-04-06T14:50:34.342Z,5.28
2023-04-06T14:53:37.798Z,5.73
2023-04-06T14:56:41.459Z,6.30
2023-04-06T14:59:44.990Z,5.80
2023-04-06T15:02:48.804Z,4.22
2023-04-06T15:05:52.983Z,6.05
2023-04-06T15:08:56.363Z,6.63
2023-04-06T15:11:59.900Z,5.43
2023-04-06T15:15:03.648Z,5.78
2023-04-06T15:18:08.194Z,6.72
2023-04-06T15:21:11.654Z,6.50
2023-04-06T15:24:15.252Z,7.25
2023-04-06T15:27:18.646Z,6.90
2023-04-06T15:30:22.657Z,9.30
2023-04-06T15:33:26.414Z,9.30
2023-04-06T15:36:31.133Z,8.10
2023-04-06T15:39:34.770Z,8.73
2023-04-06T15:42:38.349Z,6.33
2023-04-06T15:45:42.221Z,7.95
2023-04-06T15:48:46.089Z,7.28
2023-04-06T15:51:51.714Z,6.72
2023-04-06T15:54:55.817Z,7.40
2023-04-06T15:57:59.237Z,6.78
2023-04-06T16:01:12.982Z,5.03
2023-04-06T16:04:16.498Z,5.38
2023-04-06T16:07:19.954Z,7.23
2023-04-06T16:10:23.821Z,5.70
2023-04-06T16:13:27.271Z,7.03
2023-04-06T16:16:30.684Z,7.85
2023-04-06T16:19:34.216Z,6.10
2023-04-06T16:22:37.607Z,7.90
2023-04-06T16:25:42.192Z,7.97
2023-04-06T16:28:47.518Z,6.80
2023-04-06T16:31:50.967Z,6.57
2023-04-06T16:34:54.531Z,7.70
2023-04-06T16:37:57.883Z,9.13
2023-04-06T16:41:02.441Z,8.48
2023-04-06T16:44:05.829Z,7.65
2023-04-06T16:47:09.524Z,7.03
2023-04-06T16:50:12.865Z,7.75
2023-04-06T16:53:17.218Z,6.53
2023-04-06T16:56:21.132Z,5.85
2023-04-06T16:59:24.766Z,7.23
2023-04-06T17:02:38.675Z,6.43
2023-04-06T17:05:42.218Z,6.45
2023-04-06T17:08:47.426Z,6.55
2023-04-06T17:11:51.048Z,7.70
2023-04-06T17:14:54.601Z,5.72
2023-04-06T17:17:58.349Z,6.68
2023-04-06T17:21:14.661Z,7.05
2023-04-06T17:24:18.187Z,6.85
2023-04-06T17:27:23.641Z,5.93
2023-04-06T17:30:27.567Z,7.00
2023-04-06T17:33:32.590Z,7.43
2023-04-06T17:36:35.943Z,5.65
2023-04-06T17:39:39.344Z,8.70
2023-04-06T17:42:42.908Z,7.07
2023-04-06T17:45:51.119Z,6.30
2023-04-06T17:48:54.647Z,8.80
2023-04-06T17:51:58.155Z,7.95
2023-04-06T17:55:01.626Z,7.68
2023-04-06T17:58:05.592Z,8.37
2023-04-06T18:01:13.077Z,6.47
2023-04-06T18:04:16.553Z,9.70
2023-04-06T18:07:20.088Z,8.93
2023-04-06T18:10:23.976Z,9.17
2023-04-06T18:13:27.671Z,8.55
2023-04-06T18:16:31.314Z,7.88
2023-04-06T18:19:34.741Z,8.57
2023-04-06T18:22:38.120Z,8.57
2023-04-06T18:25:41.774Z,9.52
2023-04-06T18:28:45.995Z,8.93
2023-04-06T18:31:50.633Z,8.90
2023-04-06T18:34:57.526Z,7.90
2023-04-06T18:38:01.148Z,7.72
2023-04-06T18:41:04.740Z,6.75
2023-04-06T18:44:08.621Z,10.60
2023-04-06T18:47:12.223Z,11.97
2023-04-06T18:50:15.921Z,8.90
2023-04-06T18:53:19.365Z,8.70
2023-04-06T18:56:22.689Z,8.30
2023-04-06T18:59:30.265Z,8.60
2023-04-06T19:02:34.211Z,7.60
2023-04-06T19:05:40.105Z,10.40
2023-04-06T19:08:43.532Z,9.13
2023-04-06T19:11:47.077Z,9.80
2023-04-06T19:14:52.133Z,8.98
2023-04-06T19:17:55.594Z,7.47
2023-04-06T19:20:59.144Z,7.90
2023-04-06T19:24:03.005Z,8.13
2023-04-06T19:27:06.572Z,7.72
2023-04-06T19:30:10.504Z,8.55
2023-04-06T19:33:16.491Z,8.32
2023-04-06T19:36:19.953Z,13.13
2023-04-06T19:39:23.533Z,13.63
2023-04-06T19:42:27.116Z,12.95
2023-04-06T19:45:30.650Z,11.40
2023-04-06T19:48:34.202Z,11.68
2023-04-06T19:51:37.753Z,13.20
2023-04-06T19:54:41.429Z,11.27
2023-04-06T19:57:44.844Z,9.87
2023-04-06T20:00:48.644Z,11.48
2023-04-06T20:03:52.489Z,11.32
2023-04-06T20:06:55.975Z,10.93
2023-04-06T20:10:02.191Z,11.03
2023-04-06T20:13:06.071Z,8.40
2023-04-06T20:16:09.512Z,11.25
2023-04-06T20:19:12.931Z,6.63
2023-04-06T20:22:16.530Z,9.27
2023-04-06T20:25:20.144Z,9.18
2023-04-06T20:28:24.322Z,8.65
2023-04-06T20:31:28.512Z,9.00
2023-04-06T20:34:32.198Z,9.00
2023-04-06T20:37:39.267Z,9.48
2023-04-06T20:40:47.083Z,11.07
2023-04-06T20:43:50.465Z,10.45
2023-04-06T20:46:54.458Z,9.17
2023-04-06T20:49:58.576Z,10.52
2023-04-06T20:53:02.109Z,9.80
2023-04-06T20:56:05.680Z,9.95
2023-04-06T20:59:09.120Z,10.73
2023-04-06T21:02:13.024Z,8.88
2023-04-06T21:05:16.733Z,10.38
2023-04-06T21:08:20.122Z,13.17
2023-04-06T21:11:23.476Z,15.30
2023-04-06T21:14:27.942Z,11.65
2023-04-06T21:17:31.318Z,13.27
2023-04-06T21:20:35.237Z,12.15
2023-04-06T21:23:39.268Z,12.48
2023-04-06T21:26:42.687Z,10.85
2023-04-06T21:29:46.113Z,12.93
2023-04-06T21:32:49.466Z,14.40
2023-04-06T21:35:53.750Z,14.63
2023-04-06T21:38:57.113Z,14.68
2023-04-06T21:42:00.452Z,13.60
2023-04-06T21:45:04.132Z,15.05
2023-04-06T21:48:08.214Z,12.30
2023-04-06T21:51:21.042Z,14.70
2023-04-06T21:54:24.504Z,13.50
2023-04-06T21:57:27.931Z,11.43
2023-04-06T22:00:32.020Z,12.07
2023-04-06T22:03:35.438Z,13.52
2023-04-06T22:06:38.888Z,11.85
2023-04-06T22:09:43.045Z,11.45
2023-04-06T22:12:46.506Z,10.27
2023-04-06T22:15:49.891Z,11.60
2023-04-06T22:18:53.394Z,9.82
2023-04-06T22:21:57.296Z,9.77
2023-04-06T22:25:01.287Z,10.93
2023-04-06T22:28:07.669Z,11.37
2023-04-06T22:31:11.181Z,10.63
2023-04-06T22:34:14.635Z,11.63
2023-04-06T22:37:18.169Z,11.00
2023-04-06T22:40:21.660Z,11.50
2023-04-06T22:43:24.996Z,10.23
2023-04-06T22:46:28.341Z,10.77
2023-04-06T22:49:31.730Z,10.18
2023-04-06T22:52:35.086Z,9.73
2023-04-06T22:55:41.757Z,9.73
2023-04-06T22:58:45.224Z,10.65
2023-04-06T23:01:48.735Z,10.63
2023-04-06T23:04:52.145Z,10.17
2023-04-06T23:07:55.489Z,10.40
2023-04-06T23:10:59.004Z,9.68
2023-04-06T23:14:02.516Z,10.63
2023-04-06T23:17:06.178Z,9.90
2023-04-06T23:20:09.785Z,11.50
2023-04-06T23:23:13.284Z,11.32
2023-04-06T23:26:17.173Z,9.85
2023-04-06T23:29:20.803Z,10.60
2023-04-06T23:32:24.245Z,11.25
2023-04-06T23:35:27.849Z,10.38
2023-04-06T23:38:31.354Z,9.88
2023-04-06T23:41:35.661Z,10.90
2023-04-06T23:44:39.058Z,9.85
2023-04-06T23:47:42.619Z,10.05
2023-04-06T23:50:46.507Z,9.82
2023-04-06T23:53:49.905Z,9.30
2023-04-06T23:56:53.298Z,8.65
